sensor_id;sensor_type;location;lat;lon;timestamp;pressure;altitude;pressure_sealevel;temperature;humidity
46946;BME280;32679;40.810;14.498;2023-04-19T00:00:21;100035.75;;;10.04;100.00
46946;BME280;32679;40.810;14.498;2023-04-19T00:02:47;100032.88;;;10.01;100.00
46946;BME280;32679;40.810;14.498;2023-04-19T00:05:15;100037.19;;;9.98;100.00
46946;BME280;32679;40.810;14.498;2023-04-19T00:07:40;100039.59;;;10.00;100.00
46946;BME280;32679;40.810;14.498;2023-04-19T00:10:06;100036.31;;;9.94;100.00
46946;BME280;32679;40.810;14.498;2023-04-19T00:12:32;100030.84;;;9.97;100.00
46946;BME280;32679;40.810;14.498;2023-04-19T00:15:01;100027.53;;;9.92;100.00
46946;BME280;32679;40.810;14.498;2023-04-19T00:17:26;100043.13;;;9.96;100.00
46946;BME280;32679;40.810;14.498;2023-04-19T00:19:52;100038.94;;;9.87;100.00
46946;BME280;32679;40.810;14.498;2023-04-19T00:22:17;100033.72;;;9.85;100.00
46946;BME280;32679;40.810;14.498;2023-04-19T00:24:43;100036.16;;;9.87;100.00
46946;BME280;32679;40.810;14.498;2023-04-19T00:27:08;100033.72;;;9.85;100.00
46946;BME280;32679;40.810;14.498;2023-04-19T00:29:34;100042.69;;;9.79;100.00
46946;BME280;32679;40.810;14.498;2023-04-19T00:32:02;100039.84;;;9.75;100.00
46946;BME280;32679;40.810;14.498;2023-04-19T00:34:30;100030.25;;;9.73;100.00
46946;BME280;32679;40.810;14.498;2023-04-19T00:37:00;100025.34;;;9.66;100.00
46946;BME280;32679;40.810;14.498;2023-04-19T00:39:26;100026.53;;;9.84;100.00
46946;BME280;32679;40.810;14.498;2023-04-19T00:41:51;100036.47;;;9.85;100.00
46946;BME280;32679;40.810;14.498;2023-04-19T00:44:19;100028.88;;;9.82;100.00
46946;BME280;32679;40.810;14.498;2023-04-19T00:46:45;100025.69;;;9.80;100.00
46946;BME280;32679;40.810;14.498;2023-04-19T00:49:10;100022.28;;;9.71;100.00
46946;BME280;32679;40.810;14.498;2023-04-19T00:51:36;100023.34;;;9.66;100.00
46946;BME280;32679;40.810;14.498;2023-04-19T00:54:05;100028.72;;;9.75;100.00
46946;BME280;32679;40.810;14.498;2023-04-19T00:56:33;100027.84;;;9.71;100.00
46946;BME280;32679;40.810;14.498;2023-04-19T00:58:59;100021.53;;;9.74;100.00
46946;BME280;32679;40.810;14.498;2023-04-19T01:01:26;100024.97;;;9.67;100.00
46946;BME280;32679;40.810;14.498;2023-04-19T01:03:53;100025.34;;;9.66;100.00
46946;BME280;32679;40.810;14.498;2023-04-19T01:06:19;100025.97;;;9.59;100.00
46946;BME280;32679;40.810;14.498;2023-04-19T01:08:45;100027.94;;;9.59;100.00
46946;BME280;32679;40.810;14.498;2023-04-19T01:11:13;100025.88;;;9.56;100.00
46946;BME280;32679;40.810;14.498;2023-04-19T01:13:41;100021.84;;;9.53;100.00
46946;BME280;32679;40.810;14.498;2023-04-19T01:16:09;100024.06;;;9.48;100.00
46946;BME280;32679;40.810;14.498;2023-04-19T01:18:37;100026.53;;;9.49;100.00
46946;BME280;32679;40.810;14.498;2023-04-19T01:21:05;100028.03;;;9.47;100.00
46946;BME280;32679;40.810;14.498;2023-04-19T01:23:36;100030.47;;;9.48;100.00
46946;BME280;32679;40.810;14.498;2023-04-19T01:26:05;100026.41;;;9.45;100.00
46946;BME280;32679;40.810;14.498;2023-04-19T01:28:31;100037.53;;;9.45;100.00
46946;BME280;32679;40.810;14.498;2023-04-19T01:30:59;100032.59;;;9.39;100.00
46946;BME280;32679;40.810;14.498;2023-04-19T01:33:27;100028.41;;;9.29;100.00
46946;BME280;32679;40.810;14.498;2023-04-19T01:35:55;100031.53;;;9.28;100.00
46946;BME280;32679;40.810;14.498;2023-04-19T01:38:21;100027.84;;;9.24;100.00
46946;BME280;32679;40.810;14.498;2023-04-19T01:40:49;100030.09;;;9.18;100.00
46946;BME280;32679;40.810;14.498;2023-04-19T01:43:17;100036.09;;;9.20;100.00
46946;BME280;32679;40.810;14.498;2023-04-19T01:45:43;100034.47;;;9.19;100.00
46946;BME280;32679;40.810;14.498;2023-04-19T01:48:09;100039.13;;;9.15;100.00
46946;BME280;32679;40.810;14.498;2023-04-19T01:50:38;100034.09;;;9.05;100.00
46946;BME280;32679;40.810;14.498;2023-04-19T01:53:08;100038.69;;;9.13;100.00
46946;BME280;32679;40.810;14.498;2023-04-19T01:55:37;100032.47;;;9.04;100.00
46946;BME280;32679;40.810;14.498;2023-04-19T01:58:02;100038.41;;;9.02;100.00
46946;BME280;32679;40.810;14.498;2023-04-19T02:00:28;100028.75;;;9.12;100.00
46946;BME280;32679;40.810;14.498;2023-04-19T02:02:53;100031.06;;;9.10;100.00
46946;BME280;32679;40.810;14.498;2023-04-19T02:05:24;100029.00;;;9.07;100.00
46946;BME280;32679;40.810;14.498;2023-04-19T02:07:49;100034.81;;;9.02;100.00
46946;BME280;32679;40.810;14.498;2023-04-19T02:10:18;100040.13;;;9.07;100.00
46946;BME280;32679;40.810;14.498;2023-04-19T02:12:43;100039.22;;;9.03;100.00
46946;BME280;32679;40.810;14.498;2023-04-19T02:15:09;100036.53;;;9.06;100.00
46946;BME280;32679;40.810;14.498;2023-04-19T02:17:34;100036.59;;;9.10;100.00
46946;BME280;32679;40.810;14.498;2023-04-19T02:20:00;100028.28;;;9.10;100.00
46946;BME280;32679;40.810;14.498;2023-04-19T02:22:28;100028.28;;;9.10;100.00
46946;BME280;32679;40.810;14.498;2023-04-19T02:24:56;100032.69;;;9.11;100.00
46946;BME280;32679;40.810;14.498;2023-04-19T02:27:24;100027.16;;;9.11;100.00
46946;BME280;32679;40.810;14.498;2023-04-19T02:29:52;100027.84;;;9.08;100.00
46946;BME280;32679;40.810;14.498;2023-04-19T02:32:17;100027.84;;;9.08;100.00
46946;BME280;32679;40.810;14.498;2023-04-19T02:34:48;100034.63;;;9.10;100.00
46946;BME280;32679;40.810;14.498;2023-04-19T02:37:16;100040.44;;;9.05;100.00
46946;BME280;32679;40.810;14.498;2023-04-19T02:39:45;100035.72;;;9.06;100.00
46946;BME280;32679;40.810;14.498;2023-04-19T02:42:11;100027.84;;;9.08;100.00
46946;BME280;32679;40.810;14.498;2023-04-19T02:44:38;100038.03;;;9.04;100.00
46946;BME280;32679;40.810;14.498;2023-04-19T02:47:06;100028.66;;;9.08;100.00
46946;BME280;32679;40.810;14.498;2023-04-19T02:49:37;100030.97;;;8.90;100.00
46946;BME280;32679;40.810;14.498;2023-04-19T02:52:05;100031.91;;;8.82;100.00
46946;BME280;32679;40.810;14.498;2023-04-19T02:54:32;99998.50;;;8.63;100.00
46946;BME280;32679;40.810;14.498;2023-04-19T02:56:57;100027.97;;;8.83;100.00
46946;BME280;32679;40.810;14.498;2023-04-19T02:59:23;100032.97;;;8.78;100.00
46946;BME280;32679;40.810;14.498;2023-04-19T03:01:51;100034.31;;;8.84;100.00
46946;BME280;32679;40.810;14.498;2023-04-19T03:04:19;100032.72;;;8.83;100.00
46946;BME280;32679;40.810;14.498;2023-04-19T03:06:44;100041.94;;;8.87;100.00
46946;BME280;32679;40.810;14.498;2023-04-19T03:09:10;100027.09;;;8.79;100.00
46946;BME280;32679;40.810;14.498;2023-04-19T03:11:43;100029.13;;;8.82;100.00
46946;BME280;32679;40.810;14.498;2023-04-19T03:14:10;100037.69;;;8.89;100.00
46946;BME280;32679;40.810;14.498;2023-04-19T03:16:36;100032.41;;;9.00;100.00
46946;BME280;32679;40.810;14.498;2023-04-19T03:19:02;100033.00;;;8.93;100.00
46946;BME280;32679;40.810;14.498;2023-04-19T03:21:33;100036.25;;;8.96;100.00
46946;BME280;32679;40.810;14.498;2023-04-19T03:24:00;100033.22;;;9.01;100.00
46946;BME280;32679;40.810;14.498;2023-04-19T03:26:26;100037.84;;;8.97;100.00
46946;BME280;32679;40.810;14.498;2023-04-19T03:28:53;100042.50;;;8.92;100.00
46946;BME280;32679;40.810;14.498;2023-04-19T03:31:21;100034.72;;;8.98;100.00
46946;BME280;32679;40.810;14.498;2023-04-19T03:33:47;100040.56;;;9.09;100.00
46946;BME280;32679;40.810;14.498;2023-04-19T03:36:12;100032.78;;;9.14;100.00
46946;BME280;32679;40.810;14.498;2023-04-19T03:38:40;100032.41;;;9.16;100.00
46946;BME280;32679;40.810;14.498;2023-04-19T03:41:20;100038.41;;;9.18;100.00
46946;BME280;32679;40.810;14.498;2023-04-19T03:43:48;100035.38;;;9.23;100.00
46946;BME280;32679;40.810;14.498;2023-04-19T03:46:13;100039.06;;;9.27;100.00
46946;BME280;32679;40.810;14.498;2023-04-19T03:48:42;100047.41;;;9.27;100.00
46946;BME280;32679;40.810;14.498;2023-04-19T03:51:10;100046.03;;;9.21;100.00
46946;BME280;32679;40.810;14.498;2023-04-19T03:53:38;100046.38;;;9.19;100.00
46946;BME280;32679;40.810;14.498;2023-04-19T03:56:04;100051.25;;;9.23;100.00
46946;BME280;32679;40.810;14.498;2023-04-19T03:58:29;100057.59;;;9.23;100.00
46946;BME280;32679;40.810;14.498;2023-04-19T04:00:57;100060.72;;;9.22;100.00
46946;BME280;32679;40.810;14.498;2023-04-19T04:03:25;100060.81;;;9.25;100.00
46946;BME280;32679;40.810;14.498;2023-04-19T04:05:59;100057.66;;;9.27;100.00
46946;BME280;32679;40.810;14.498;2023-04-19T04:08:24;100052.22;;;9.30;100.00
46946;BME280;32679;40.810;14.498;2023-04-19T04:10:50;100053.13;;;9.34;100.00
46946;BME280;32679;40.810;14.498;2023-04-19T04:13:15;100052.13;;;9.42;100.00
46946;BME280;32679;40.810;14.498;2023-04-19T04:15:41;100067.53;;;9.40;100.00
46946;BME280;32679;40.810;14.498;2023-04-19T04:18:09;100062.16;;;9.47;100.00
46946;BME280;32679;40.810;14.498;2023-04-19T04:20:37;100066.00;;;9.42;100.00
46946;BME280;32679;40.810;14.498;2023-04-19T04:23:02;100058.56;;;9.47;100.00
46946;BME280;32679;40.810;14.498;2023-04-19T04:25:28;100059.38;;;9.47;100.00
46946;BME280;32679;40.810;14.498;2023-04-19T04:27:57;100074.06;;;9.48;100.00
46946;BME280;32679;40.810;14.498;2023-04-19T04:30:25;100066.91;;;9.47;100.00
46946;BME280;32679;40.810;14.498;2023-04-19T04:32:55;100069.41;;;9.52;100.00
46946;BME280;32679;40.810;14.498;2023-04-19T04:35:25;100067.44;;;9.52;100.00
46946;BME280;32679;40.810;14.498;2023-04-19T04:37:51;100066.38;;;9.57;100.00
46946;BME280;32679;40.810;14.498;2023-04-19T04:40:23;100067.53;;;9.56;100.00
46946;BME280;32679;40.810;14.498;2023-04-19T04:42:48;100076.84;;;9.63;100.00
46946;BME280;32679;40.810;14.498;2023-04-19T04:45:17;100073.72;;;9.65;100.00
46946;BME280;32679;40.810;14.498;2023-04-19T04:47:48;100077.38;;;9.69;100.00
46946;BME280;32679;40.810;14.498;2023-04-19T04:50:15;100080.63;;;9.71;100.00
46946;BME280;32679;40.810;14.498;2023-04-19T04:52:41;100084.75;;;9.77;100.00
46946;BME280;32679;40.810;14.498;2023-04-19T04:55:09;100084.03;;;9.80;100.00
46946;BME280;32679;40.810;14.498;2023-04-19T04:57:35;100087.94;;;9.79;100.00
46946;BME280;32679;40.810;14.498;2023-04-19T05:00:00;100088.41;;;9.81;100.00
46946;BME280;32679;40.810;14.498;2023-04-19T05:02:26;100077.38;;;9.85;100.00
46946;BME280;32679;40.810;14.498;2023-04-19T05:04:59;100082.84;;;9.97;100.00
46946;BME280;32679;40.810;14.498;2023-04-19T05:07:27;100069.25;;;9.76;100.00
46946;BME280;32679;40.810;14.498;2023-04-19T05:09:55;100092.53;;;9.87;100.00
46946;BME280;32679;40.810;14.498;2023-04-19T05:12:20;100092.69;;;9.94;100.00
46946;BME280;32679;40.810;14.498;2023-04-19T05:14:46;100095.19;;;10.00;100.00
46946;BME280;32679;40.810;14.498;2023-04-19T05:17:16;100097.53;;;9.97;100.00
46946;BME280;32679;40.810;14.498;2023-04-19T05:19:41;100092.34;;;9.96;100.00
46946;BME280;32679;40.810;14.498;2023-04-19T05:22:06;100085.97;;;9.95;100.00
46946;BME280;32679;40.810;14.498;2023-04-19T05:24:32;100096.81;;;10.01;100.00
46946;BME280;32679;40.810;14.498;2023-04-19T05:27:00;100092.22;;;10.08;100.00
46946;BME280;32679;40.810;14.498;2023-04-19T05:29:26;100089.16;;;10.13;100.00
46946;BME280;32679;40.810;14.498;2023-04-19T05:31:54;100086.03;;;10.15;100.00
46946;BME280;32679;40.810;14.498;2023-04-19T05:34:24;100096.50;;;10.21;100.00
46946;BME280;32679;40.810;14.498;2023-04-19T05:36:52;100095.00;;;10.24;100.00
46946;BME280;32679;40.810;14.498;2023-04-19T05:39:17;100096.63;;;10.25;100.00
46946;BME280;32679;40.810;14.498;2023-04-19T05:41:46;100098.38;;;10.33;100.00
46946;BME280;32679;40.810;14.498;2023-04-19T05:44:11;100095.78;;;10.40;100.00
46946;BME280;32679;40.810;14.498;2023-04-19T05:46:40;100099.34;;;10.41;100.00
46946;BME280;32679;40.810;14.498;2023-04-19T05:49:06;100096.13;;;10.39;100.00
46946;BME280;32679;40.810;14.498;2023-04-19T05:51:31;100100.97;;;10.42;100.00
46946;BME280;32679;40.810;14.498;2023-04-19T05:53:57;100105.56;;;10.54;100.00
46946;BME280;32679;40.810;14.498;2023-04-19T05:56:28;100112.78;;;10.55;100.00
46946;BME280;32679;40.810;14.498;2023-04-19T05:58:54;100110.63;;;10.48;100.00
46946;BME280;32679;40.810;14.498;2023-04-19T06:01:25;100115.31;;;10.44;100.00
46946;BME280;32679;40.810;14.498;2023-04-19T06:03:52;100115.00;;;10.49;100.00
46946;BME280;32679;40.810;14.498;2023-04-19T06:06:25;100117.16;;;10.56;100.00
46946;BME280;32679;40.810;14.498;2023-04-19T06:08:53;100118.03;;;10.60;100.00
46946;BME280;32679;40.810;14.498;2023-04-19T06:11:24;100123.25;;;10.61;100.00
46946;BME280;32679;40.810;14.498;2023-04-19T06:13:52;100116.41;;;10.59;100.00
46946;BME280;32679;40.810;14.498;2023-04-19T06:16:18;100110.75;;;10.71;100.00
46946;BME280;32679;40.810;14.498;2023-04-19T06:18:49;100119.22;;;10.78;100.00
46946;BME280;32679;40.810;14.498;2023-04-19T06:21:17;100106.13;;;10.79;100.00
46946;BME280;32679;40.810;14.498;2023-04-19T06:23:42;100109.84;;;10.86;100.00
46946;BME280;32679;40.810;14.498;2023-04-19T06:26:10;100109.53;;;10.91;100.00
46946;BME280;32679;40.810;14.498;2023-04-19T06:28:38;100112.50;;;10.98;100.00
46946;BME280;32679;40.810;14.498;2023-04-19T06:31:06;100101.41;;;11.02;100.00
46946;BME280;32679;40.810;14.498;2023-04-19T06:33:32;100105.28;;;11.17;100.00
46946;BME280;32679;40.810;14.498;2023-04-19T06:35:57;100102.66;;;11.24;100.00
46946;BME280;32679;40.810;14.498;2023-04-19T06:38:23;100107.28;;;11.39;100.00
46946;BME280;32679;40.810;14.498;2023-04-19T06:40:51;100103.53;;;11.51;100.00
46946;BME280;32679;40.810;14.498;2023-04-19T06:43:17;100104.31;;;11.74;100.00
46946;BME280;32679;40.810;14.498;2023-04-19T06:45:45;100101.38;;;11.87;100.00
46946;BME280;32679;40.810;14.498;2023-04-19T06:48:10;100093.72;;;12.06;100.00
46946;BME280;32679;40.810;14.498;2023-04-19T06:50:40;100105.91;;;12.21;100.00
46946;BME280;32679;40.810;14.498;2023-04-19T06:53:09;100098.97;;;12.38;100.00
46946;BME280;32679;40.810;14.498;2023-04-19T06:55:37;100105.81;;;12.44;100.00
46946;BME280;32679;40.810;14.498;2023-04-19T06:58:02;100111.69;;;12.66;100.00
46946;BME280;32679;40.810;14.498;2023-04-19T07:00:28;100112.34;;;12.85;100.00
46946;BME280;32679;40.810;14.498;2023-04-19T07:02:53;100113.38;;;13.04;100.00
46946;BME280;32679;40.810;14.498;2023-04-19T07:05:19;100102.91;;;12.97;100.00
46946;BME280;32679;40.810;14.498;2023-04-19T07:07:45;100107.06;;;13.10;100.00
46946;BME280;32679;40.810;14.498;2023-04-19T07:10:10;100105.47;;;13.43;100.00
46946;BME280;32679;40.810;14.498;2023-04-19T07:12:37;100113.78;;;13.40;100.00
46946;BME280;32679;40.810;14.498;2023-04-19T07:15:03;100110.81;;;13.62;100.00
46946;BME280;32679;40.810;14.498;2023-04-19T07:17:31;100115.69;;;13.73;100.00
46946;BME280;32679;40.810;14.498;2023-04-19T07:20:01;100110.91;;;13.73;100.00
46946;BME280;32679;40.810;14.498;2023-04-19T07:22:27;100108.63;;;13.86;100.00
46946;BME280;32679;40.810;14.498;2023-04-19T07:24:56;100113.09;;;13.91;99.76
46946;BME280;32679;40.810;14.498;2023-04-19T07:27:24;100123.88;;;13.92;94.90
46946;BME280;32679;40.810;14.498;2023-04-19T07:29:51;100110.22;;;15.18;95.76
46946;BME280;32679;40.810;14.498;2023-04-19T07:32:16;100118.38;;;15.84;80.50
46946;BME280;32679;40.810;14.498;2023-04-19T07:34:44;100121.09;;;16.63;77.32
46946;BME280;32679;40.810;14.498;2023-04-19T07:37:10;100122.22;;;16.87;67.00
46946;BME280;32679;40.810;14.498;2023-04-19T07:39:39;100128.38;;;17.41;69.23
46946;BME280;32679;40.810;14.498;2023-04-19T07:42:06;100136.94;;;17.89;70.25
46946;BME280;32679;40.810;14.498;2023-04-19T07:44:34;100133.94;;;17.59;70.62
46946;BME280;32679;40.810;14.498;2023-04-19T07:47:02;100128.00;;;18.01;71.82
46946;BME280;32679;40.810;14.498;2023-04-19T07:49:30;100128.31;;;18.11;64.50
46946;BME280;32679;40.810;14.498;2023-04-19T07:51:59;100121.28;;;18.33;64.74
46946;BME280;32679;40.810;14.498;2023-04-19T07:54:26;100125.97;;;18.47;62.05
46946;BME280;32679;40.810;14.498;2023-04-19T07:56:54;100121.34;;;18.64;57.00
46946;BME280;32679;40.810;14.498;2023-04-19T07:59:20;100119.34;;;18.68;58.58
46946;BME280;32679;40.810;14.498;2023-04-19T08:01:48;100131.00;;;19.04;55.59
46946;BME280;32679;40.810;14.498;2023-04-19T08:04:14;100128.16;;;19.92;55.93
46946;BME280;32679;40.810;14.498;2023-04-19T08:06:44;100127.91;;;20.06;51.75
46946;BME280;32679;40.810;14.498;2023-04-19T08:09:15;100135.56;;;20.56;52.51
46946;BME280;32679;40.810;14.498;2023-04-19T08:11:44;100132.88;;;21.09;48.86
46946;BME280;32679;40.810;14.498;2023-04-19T08:14:10;100137.31;;;20.23;50.71
46946;BME280;32679;40.810;14.498;2023-04-19T08:16:37;100132.31;;;20.78;50.64
46946;BME280;32679;40.810;14.498;2023-04-19T08:19:03;100126.44;;;20.88;50.66
46946;BME280;32679;40.810;14.498;2023-04-19T08:21:28;100126.25;;;20.56;50.54
46946;BME280;32679;40.810;14.498;2023-04-19T08:23:56;100131.66;;;21.10;48.91
46946;BME280;32679;40.810;14.498;2023-04-19T08:26:22;100131.19;;;20.05;51.26
46946;BME280;32679;40.810;14.498;2023-04-19T08:28:47;100130.63;;;20.37;51.11
46946;BME280;32679;40.810;14.498;2023-04-19T08:31:15;100127.16;;;19.48;51.87
46946;BME280;32679;40.810;14.498;2023-04-19T08:33:41;100130.19;;;20.15;52.49
46946;BME280;32679;40.810;14.498;2023-04-19T08:36:07;100122.66;;;19.81;52.49
46946;BME280;32679;40.810;14.498;2023-04-19T08:38:32;100125.03;;;20.57;50.02
46946;BME280;32679;40.810;14.498;2023-04-19T08:40:58;100125.09;;;21.53;48.05
46946;BME280;32679;40.810;14.498;2023-04-19T08:43:24;100111.84;;;21.66;46.79
46946;BME280;32679;40.810;14.498;2023-04-19T08:45:53;100113.75;;;22.21;46.55
46946;BME280;32679;40.810;14.498;2023-04-19T08:48:21;100115.94;;;22.30;44.90
46946;BME280;32679;40.810;14.498;2023-04-19T08:50:50;100117.16;;;22.45;45.25
46946;BME280;32679;40.810;14.498;2023-04-19T08:53:16;100103.88;;;22.26;44.32
46946;BME280;32679;40.810;14.498;2023-04-19T08:55:42;100101.91;;;21.02;46.68
46946;BME280;32679;40.810;14.498;2023-04-19T08:58:10;100111.28;;;20.35;47.19
46946;BME280;32679;40.810;14.498;2023-04-19T09:00:39;100098.00;;;20.96;45.94
46946;BME280;32679;40.810;14.498;2023-04-19T09:03:06;100092.78;;;20.74;46.91
46946;BME280;32679;40.810;14.498;2023-04-19T09:05:33;100111.19;;;20.82;44.67
46946;BME280;32679;40.810;14.498;2023-04-19T09:08:21;100099.66;;;21.13;45.27
46946;BME280;32679;40.810;14.498;2023-04-19T09:10:55;100100.16;;;21.08;44.92
46946;BME280;32679;40.810;14.498;2023-04-19T09:13:24;100099.94;;;21.38;45.30
46946;BME280;32679;40.810;14.498;2023-04-19T09:15:56;100101.75;;;21.65;43.55
46946;BME280;32679;40.810;14.498;2023-04-19T09:18:24;100095.78;;;21.43;43.56
46946;BME280;32679;40.810;14.498;2023-04-19T09:20:52;100092.53;;;22.10;43.71
46946;BME280;32679;40.810;14.498;2023-04-19T09:23:24;100093.78;;;21.76;42.93
46946;BME280;32679;40.810;14.498;2023-04-19T09:28:22;100099.81;;;20.66;45.72
46946;BME280;32679;40.810;14.498;2023-04-19T09:30:49;100099.38;;;21.96;43.73
46946;BME280;32679;40.810;14.498;2023-04-19T09:33:35;100094.25;;;23.11;40.49
46946;BME280;32679;40.810;14.498;2023-04-19T09:36:06;100098.59;;;22.12;41.20
46946;BME280;32679;40.810;14.498;2023-04-19T09:38:52;100096.19;;;22.85;40.49
46946;BME280;32679;40.810;14.498;2023-04-19T09:41:18;100092.66;;;23.10;39.13
46946;BME280;32679;40.810;14.498;2023-04-19T09:43:44;100069.75;;;23.42;39.30
46946;BME280;32679;40.810;14.498;2023-04-19T09:46:35;100093.59;;;23.07;38.47
46946;BME280;32679;40.810;14.498;2023-04-19T09:51:48;100084.31;;;23.70;37.65
46946;BME280;32679;40.810;14.498;2023-04-19T09:54:19;100090.88;;;22.87;38.34
46946;BME280;32679;40.810;14.498;2023-04-19T09:56:45;100086.09;;;23.38;37.72
46946;BME280;32679;40.810;14.498;2023-04-19T09:59:11;100086.47;;;23.40;37.75
46946;BME280;32679;40.810;14.498;2023-04-19T10:01:55;100096.91;;;23.56;36.76
46946;BME280;32679;40.810;14.498;2023-04-19T10:04:25;100086.00;;;22.29;38.39
46946;BME280;32679;40.810;14.498;2023-04-19T10:06:53;100086.22;;;22.80;37.40
46946;BME280;32679;40.810;14.498;2023-04-19T10:09:22;100078.53;;;23.73;36.29
46946;BME280;32679;40.810;14.498;2023-04-19T10:11:58;100071.13;;;23.12;37.50
46946;BME280;32679;40.810;14.498;2023-04-19T10:14:26;100082.69;;;23.18;37.21
46946;BME280;32679;40.810;14.498;2023-04-19T10:16:59;100085.91;;;23.45;37.23
46946;BME280;32679;40.810;14.498;2023-04-19T10:19:26;100070.91;;;23.83;38.01
46946;BME280;32679;40.810;14.498;2023-04-19T10:21:57;100070.22;;;23.79;38.44
46946;BME280;32679;40.810;14.498;2023-04-19T10:24:25;100070.78;;;23.61;40.68
46946;BME280;32679;40.810;14.498;2023-04-19T10:27:11;100065.84;;;22.69;41.26
46946;BME280;32679;40.810;14.498;2023-04-19T10:30:02;100063.81;;;22.11;42.91
46946;BME280;32679;40.810;14.498;2023-04-19T10:32:43;100069.47;;;21.79;43.25
46946;BME280;32679;40.810;14.498;2023-04-19T10:35:20;100061.31;;;21.81;42.67
46946;BME280;32679;40.810;14.498;2023-04-19T10:38:09;100046.44;;;22.55;41.21
46946;BME280;32679;40.810;14.498;2023-04-19T10:43:19;100058.66;;;23.61;39.80
46946;BME280;32679;40.810;14.498;2023-04-19T10:45:47;100060.00;;;24.29;39.42
46946;BME280;32679;40.810;14.498;2023-04-19T10:56:14;100055.03;;;23.73;40.29
46946;BME280;32679;40.810;14.498;2023-04-19T11:04:05;100036.59;;;23.26;39.97
46946;BME280;32679;40.810;14.498;2023-04-19T11:06:32;100042.03;;;24.32;38.24
46946;BME280;32679;40.810;14.498;2023-04-19T11:09:00;100036.84;;;24.74;37.61
46946;BME280;32679;40.810;14.498;2023-04-19T11:11:34;100042.13;;;24.41;38.72
46946;BME280;32679;40.810;14.498;2023-04-19T11:14:00;100042.94;;;23.94;39.40
46946;BME280;32679;40.810;14.498;2023-04-19T11:16:29;100028.19;;;22.97;39.69
46946;BME280;32679;40.810;14.498;2023-04-19T11:18:55;100030.31;;;22.52;40.14
46946;BME280;32679;40.810;14.498;2023-04-19T11:21:20;100028.94;;;21.49;43.02
46946;BME280;32679;40.810;14.498;2023-04-19T11:23:48;100034.16;;;21.67;42.71
46946;BME280;32679;40.810;14.498;2023-04-19T11:26:18;100031.31;;;21.51;43.96
46946;BME280;32679;40.810;14.498;2023-04-19T11:28:43;100023.06;;;21.04;44.30
46946;BME280;32679;40.810;14.498;2023-04-19T11:31:14;100025.66;;;20.78;45.25
46946;BME280;32679;40.810;14.498;2023-04-19T11:33:42;100028.66;;;20.28;45.44
46946;BME280;32679;40.810;14.498;2023-04-19T11:36:10;100017.53;;;20.40;45.94
46946;BME280;32679;40.810;14.498;2023-04-19T11:38:38;100026.50;;;20.35;46.47
46946;BME280;32679;40.810;14.498;2023-04-19T11:41:08;100025.41;;;20.29;48.53
46946;BME280;32679;40.810;14.498;2023-04-19T11:43:35;100022.31;;;20.44;50.94
46946;BME280;32679;40.810;14.498;2023-04-19T11:46:08;100008.25;;;20.20;53.61
46946;BME280;32679;40.810;14.498;2023-04-19T11:48:33;100034.41;;;20.24;54.33
46946;BME280;32679;40.810;14.498;2023-04-19T11:50:59;100038.06;;;19.78;55.30
46946;BME280;32679;40.810;14.498;2023-04-19T11:53:27;100029.50;;;19.81;55.45
46946;BME280;32679;40.810;14.498;2023-04-19T11:55:56;100028.63;;;20.08;55.33
46946;BME280;32679;40.810;14.498;2023-04-19T11:58:44;100032.38;;;20.01;54.67
46946;BME280;32679;40.810;14.498;2023-04-19T12:01:15;100023.38;;;19.86;55.15
46946;BME280;32679;40.810;14.498;2023-04-19T12:06:11;100031.84;;;19.09;57.40
46946;BME280;32679;40.810;14.498;2023-04-19T12:08:45;100019.59;;;19.19;57.43
46946;BME280;32679;40.810;14.498;2023-04-19T12:11:17;100011.19;;;19.43;57.43
46946;BME280;32679;40.810;14.498;2023-04-19T12:13:43;100019.91;;;19.52;57.79
46946;BME280;32679;40.810;14.498;2023-04-19T12:16:12;100010.34;;;19.46;56.88
46946;BME280;32679;40.810;14.498;2023-04-19T12:18:56;100017.88;;;19.52;56.67
46946;BME280;32679;40.810;14.498;2023-04-19T12:21:28;100013.50;;;19.48;56.28
46946;BME280;32679;40.810;14.498;2023-04-19T12:23:59;100015.66;;;19.13;55.78
46946;BME280;32679;40.810;14.498;2023-04-19T12:26:26;100007.56;;;18.88;56.17
46946;BME280;32679;40.810;14.498;2023-04-19T12:28:59;100003.84;;;18.95;56.22
46946;BME280;32679;40.810;14.498;2023-04-19T12:31:25;100005.78;;;19.28;53.68
46946;BME280;32679;40.810;14.498;2023-04-19T12:33:51;99998.00;;;19.09;52.91
46946;BME280;32679;40.810;14.498;2023-04-19T12:36:16;100000.75;;;19.40;51.19
46946;BME280;32679;40.810;14.498;2023-04-19T12:38:42;99998.34;;;19.88;50.60
46946;BME280;32679;40.810;14.498;2023-04-19T12:41:10;99986.91;;;19.96;50.36
46946;BME280;32679;40.810;14.498;2023-04-19T12:43:44;99990.13;;;19.98;51.26
46946;BME280;32679;40.810;14.498;2023-04-19T12:46:09;99991.47;;;19.89;52.54
46946;BME280;32679;40.810;14.498;2023-04-19T12:48:39;99987.69;;;20.20;51.35
46946;BME280;32679;40.810;14.498;2023-04-19T12:51:10;99975.88;;;19.81;52.76
46946;BME280;32679;40.810;14.498;2023-04-19T12:53:35;99988.50;;;19.50;54.21
46946;BME280;32679;40.810;14.498;2023-04-19T12:56:01;99979.72;;;19.17;57.11
46946;BME280;32679;40.810;14.498;2023-04-19T12:58:28;99974.88;;;19.45;57.33
46946;BME280;32679;40.810;14.498;2023-04-19T13:00:54;99971.84;;;19.32;56.97
46946;BME280;32679;40.810;14.498;2023-04-19T13:03:25;99969.91;;;19.99;55.76
46946;BME280;32679;40.810;14.498;2023-04-19T13:05:51;99971.06;;;19.31;57.83